Time;durP1;ratioP1;P1;durP2;ratioP2;P2;SDS_P1;SDS_P2;PMS_P1;PMS_P2;Temp;Humidity;BMP_temperature;BMP_pressure;BME280_temperature;BME280_humidity;BME280_pressure;Samples;Min_cycle;Max_cycle;Signal;HPM_P1;HPM_P2
2022/07/10 00:01:55;;;;;;;0.57;0.20;;;16.00;67.40;;;;;;6272957;22;20027;-76
2022/07/10 00:04:21;;;;;;;0.85;0.40;;;16.00;67.50;;;;;;6272231;22;20016;-76
2022/07/10 00:06:47;;;;;;;0.15;0.15;;;16.00;67.60;;;;;;6248552;22;20011;-76
2022/07/10 00:09:13;;;;;;;0.28;0.20;;;16.00;67.60;;;;;;6273908;22;20019;-76
2022/07/10 00:11:40;;;;;;;0.80;0.25;;;15.90;67.70;;;;;;6289630;22;20035;-76
2022/07/10 00:14:06;;;;;;;0.20;0.20;;;16.10;67.80;;;;;;6306193;22;20523;-75
2022/07/10 00:16:32;;;;;;;0.28;0.20;;;16.00;67.70;;;;;;6306260;22;20003;-75
2022/07/10 00:18:58;;;;;;;0.22;0.22;;;15.90;67.80;;;;;;6306233;22;20007;-75
2022/07/10 00:21:23;;;;;;;0.35;0.17;;;15.90;67.80;;;;;;6278221;22;20038;-76
2022/07/10 00:23:49;;;;;;;0.45;0.20;;;15.90;68.00;;;;;;6279004;22;20017;-76
2022/07/10 00:26:15;;;;;;;0.52;0.22;;;16.00;68.10;;;;;;6277740;22;20092;-76
2022/07/10 00:28:41;;;;;;;0.30;0.30;;;15.90;68.00;;;;;;6305871;22;20090;-76
2022/07/10 00:31:06;;;;;;;0.20;0.20;;;16.00;68.00;;;;;;6305740;22;20027;-76
2022/07/10 00:33:32;;;;;;;0.22;0.22;;;16.00;68.10;;;;;;6279294;22;20011;-76
2022/07/10 00:35:59;;;;;;;0.20;0.20;;;16.00;68.10;;;;;;6306137;22;20007;-76
2022/07/10 00:38:24;;;;;;;0.10;0.10;;;15.90;68.00;;;;;;6279271;22;20319;-76
2022/07/10 00:40:50;;;;;;;0.15;0.15;;;16.00;68.10;;;;;;6278317;22;20007;-76
2022/07/10 00:43:16;;;;;;;0.75;0.40;;;16.00;68.10;;;;;;6252760;22;20021;-76
2022/07/10 00:45:42;;;;;;;0.85;0.22;;;15.90;68.20;;;;;;6305648;22;20446;-76
2022/07/10 00:48:09;;;;;;;0.20;0.20;;;15.90;68.30;;;;;;6306242;22;20371;-76
2022/07/10 00:50:35;;;;;;;0.30;0.15;;;15.90;68.40;;;;;;6305601;22;20011;-76
2022/07/10 00:53:03;;;;;;;0.25;0.20;;;15.90;68.50;;;;;;6305468;22;20012;-76
2022/07/10 00:55:30;;;;;;;0.20;0.20;;;15.80;68.50;;;;;;6305260;22;20033;-76
2022/07/10 00:57:56;;;;;;;0.28;0.28;;;15.80;68.60;;;;;;6305351;22;20496;-76
2022/07/10 01:00:23;;;;;;;0.30;0.20;;;15.80;68.70;;;;;;6278286;22;20003;-76
2022/07/10 01:02:49;;;;;;;0.30;0.20;;;15.80;68.90;;;;;;6305320;22;20386;-76
2022/07/10 01:05:14;;;;;;;0.20;0.20;;;15.80;68.90;;;;;;6305783;22;20008;-76
2022/07/10 01:07:40;;;;;;;0.20;0.20;;;15.90;69.00;;;;;;6252532;22;20007;-76
2022/07/10 01:10:06;;;;;;;0.32;0.20;;;15.70;68.90;;;;;;6252632;22;20011;-76
2022/07/10 01:12:33;;;;;;;0.13;0.13;;;15.90;69.10;;;;;;6277612;22;20023;-76
2022/07/10 01:14:59;;;;;;;0.13;0.13;;;15.80;69.00;;;;;;6277777;22;20435;-76
2022/07/10 01:17:26;;;;;;;0.57;0.25;;;15.70;69.00;;;;;;6275172;22;20089;-76
2022/07/10 01:19:51;;;;;;;0.20;0.20;;;15.80;69.00;;;;;;6278234;22;20334;-76
2022/07/10 01:22:17;;;;;;;0.65;0.10;;;15.90;69.00;;;;;;6277642;22;20053;-76
2022/07/10 01:24:43;;;;;;;0.20;0.20;;;15.80;68.90;;;;;;6276290;22;20094;-76
2022/07/10 01:27:08;;;;;;;0.43;0.30;;;15.80;69.00;;;;;;6254308;22;20037;-76
2022/07/10 01:29:35;;;;;;;0.20;0.20;;;15.80;69.00;;;;;;6307036;22;20064;-76
2022/07/10 01:32:01;;;;;;;0.73;0.40;;;15.80;69.00;;;;;;6306497;22;20014;-76
2022/07/10 01:34:28;;;;;;;0.47;0.20;;;15.70;69.10;;;;;;6279287;22;20014;-76
2022/07/10 01:36:54;;;;;;;0.20;0.20;;;15.70;69.10;;;;;;6306534;22;20010;-76
2022/07/10 01:39:19;;;;;;;0.68;0.30;;;15.70;69.20;;;;;;6279070;22;20015;-76
2022/07/10 01:41:45;;;;;;;0.45;0.30;;;15.70;69.10;;;;;;6277373;22;20050;-76
2022/07/10 01:44:11;;;;;;;0.20;0.20;;;15.70;69.20;;;;;;6307088;22;20335;-76
2022/07/10 01:46:46;;;;;;;0.50;0.30;;;15.70;69.20;;;;;;6307156;22;20373;-75
2022/07/10 01:49:12;;;;;;;0.20;0.20;;;15.70;69.30;;;;;;6306945;22;20443;-76
2022/07/10 01:51:38;;;;;;;0.28;0.28;;;15.70;69.30;;;;;;6306940;22;20057;-76
2022/07/10 01:54:03;;;;;;;0.30;0.30;;;15.60;69.30;;;;;;6306891;22;20011;-76
2022/07/10 01:56:29;;;;;;;0.20;0.20;;;15.60;69.30;;;;;;6306680;22;19999;-75
2022/07/10 01:58:55;;;;;;;0.30;0.30;;;15.60;69.40;;;;;;6279800;22;20094;-76
2022/07/10 02:01:20;;;;;;;0.47;0.30;;;15.60;69.50;;;;;;6306461;22;19999;-76
2022/07/10 02:06:32;;;;;;;0.30;0.30;;;15.50;69.50;;;;;;6306641;22;20019;-76
2022/07/10 02:08:57;;;;;;;1.15;0.20;;;15.50;69.50;;;;;;6306506;22;20084;-76
2022/07/10 02:11:23;;;;;;;0.52;0.30;;;15.50;69.50;;;;;;6278705;22;20446;-76
2022/07/10 02:13:49;;;;;;;0.35;0.20;;;15.50;69.60;;;;;;6306965;22;20007;-76
2022/07/10 02:16:14;;;;;;;0.10;0.10;;;15.50;69.60;;;;;;6297377;22;20052;-75
2022/07/10 02:18:40;;;;;;;0.30;0.30;;;15.50;69.70;;;;;;6278182;22;20034;-76
2022/07/10 02:21:06;;;;;;;0.35;0.30;;;15.40;69.70;;;;;;6306555;22;20011;-76
2022/07/10 02:23:32;;;;;;;0.35;0.20;;;15.40;69.80;;;;;;6276481;22;20292;-76
2022/07/10 02:25:59;;;;;;;0.25;0.25;;;15.50;69.90;;;;;;6306504;22;20007;-76
2022/07/10 02:28:25;;;;;;;0.63;0.22;;;15.40;69.80;;;;;;6306878;22;20011;-76
2022/07/10 02:30:51;;;;;;;0.47;0.25;;;15.40;69.90;;;;;;6306290;22;20453;-76
2022/07/10 02:33:17;;;;;;;0.20;0.20;;;15.40;70.00;;;;;;6253705;22;20041;-76
2022/07/10 02:35:42;;;;;;;0.20;0.20;;;15.40;70.00;;;;;;6278072;22;20309;-75
2022/07/10 02:38:08;;;;;;;0.30;0.30;;;15.40;70.00;;;;;;6306486;22;19999;-76
2022/07/10 02:40:34;;;;;;;0.40;0.15;;;15.40;70.10;;;;;;6276516;22;20000;-76
2022/07/10 02:42:59;;;;;;;0.82;0.20;;;15.40;70.00;;;;;;6278968;22;20003;-76
2022/07/10 02:45:25;;;;;;;1.17;0.30;;;15.40;70.20;;;;;;6305942;22;20003;-76
2022/07/10 02:47:51;;;;;;;0.15;0.15;;;15.30;70.30;;;;;;6278921;22;20003;-75
2022/07/10 02:50:16;;;;;;;0.55;0.30;;;15.20;70.50;;;;;;6306066;22;20328;-76
2022/07/10 02:52:42;;;;;;;0.10;0.10;;;15.20;70.70;;;;;;6253199;22;20010;-76
2022/07/10 02:55:08;;;;;;;0.43;0.20;;;15.10;70.80;;;;;;6306409;22;20003;-76
2022/07/10 02:57:34;;;;;;;0.20;0.20;;;15.10;70.90;;;;;;6306011;22;20022;-76
2022/07/10 02:59:59;;;;;;;0.25;0.25;;;15.10;71.00;;;;;;6306055;22;20056;-76
2022/07/10 03:02:26;;;;;;;0.20;0.20;;;15.10;71.00;;;;;;6306017;22;20015;-75
2022/07/10 03:04:52;;;;;;;0.10;0.10;;;15.10;71.00;;;;;;6306388;22;20313;-75
2022/07/10 03:07:18;;;;;;;0.20;0.20;;;15.00;71.00;;;;;;6278548;22;20037;-75
2022/07/10 03:09:43;;;;;;;0.28;0.28;;;15.10;71.10;;;;;;6306291;22;20018;-75
2022/07/10 03:12:09;;;;;;;0.35;0.20;;;15.10;71.10;;;;;;6278998;22;20011;-75
2022/07/10 03:14:35;;;;;;;0.28;0.28;;;15.10;71.00;;;;;;6296655;22;20031;-76
2022/07/10 03:17:01;;;;;;;0.20;0.20;;;15.10;71.00;;;;;;6305939;22;20015;-76
2022/07/10 03:19:26;;;;;;;0.20;0.20;;;15.10;71.00;;;;;;6278786;22;20011;-76
2022/07/10 03:21:52;;;;;;;0.38;0.28;;;15.20;71.00;;;;;;6250478;22;20008;-76
2022/07/10 03:24:18;;;;;;;0.10;0.10;;;15.10;71.00;;;;;;6306609;22;20335;-76
2022/07/10 03:26:44;;;;;;;0.20;0.20;;;15.20;71.10;;;;;;6306167;22;20458;-76
2022/07/10 03:29:10;;;;;;;0.35;0.22;;;15.10;71.00;;;;;;6277698;22;20395;-76
2022/07/10 03:31:36;;;;;;;0.40;0.40;;;15.20;71.00;;;;;;6306761;22;20003;-76
2022/07/10 03:34:01;;;;;;;0.85;0.52;;;15.20;71.00;;;;;;6306946;22;20094;-75
2022/07/10 03:36:27;;;;;;;0.20;0.20;;;15.20;71.00;;;;;;6278788;22;20503;-76
2022/07/10 03:38:53;;;;;;;1.25;0.40;;;15.20;71.00;;;;;;6306411;22;20018;-76
2022/07/10 03:41:19;;;;;;;0.40;0.20;;;15.20;71.00;;;;;;6306610;22;20007;-76
2022/07/10 03:43:44;;;;;;;0.35;0.30;;;15.20;71.00;;;;;;6253050;22;20011;-76
2022/07/10 03:46:10;;;;;;;0.32;0.20;;;15.20;71.00;;;;;;6278346;22;20054;-76
2022/07/10 03:48:36;;;;;;;1.00;0.40;;;15.20;71.00;;;;;;6305950;22;20031;-77
2022/07/10 03:51:02;;;;;;;2.60;0.38;;;15.30;71.10;;;;;;6279699;22;20003;-76
2022/07/10 03:53:28;;;;;;;1.55;0.40;;;15.40;71.10;;;;;;6306917;22;20090;-76
2022/07/10 03:55:55;;;;;;;0.95;0.30;;;15.20;71.00;;;;;;6279332;22;20049;-76
2022/07/10 03:58:21;;;;;;;0.38;0.32;;;15.30;71.10;;;;;;6306523;22;20086;-76
2022/07/10 04:00:46;;;;;;;0.45;0.28;;;15.20;71.10;;;;;;6306663;22;20007;-75
2022/07/10 04:03:13;;;;;;;0.20;0.20;;;15.30;71.10;;;;;;6306166;22;20007;-75
2022/07/10 04:05:39;;;;;;;0.73;0.30;;;15.30;71.20;;;;;;6306522;22;20017;-76
2022/07/10 04:08:06;;;;;;;0.73;0.40;;;15.20;71.10;;;;;;6305969;22;20015;-76
2022/07/10 04:10:32;;;;;;;0.40;0.30;;;15.30;71.20;;;;;;6252015;22;20335;-76
2022/07/10 04:12:58;;;;;;;0.95;0.40;;;15.30;71.10;;;;;;6279123;22;20062;-76
2022/07/10 04:15:24;;;;;;;0.90;0.30;;;15.40;71.10;;;;;;6279427;22;20004;-76
2022/07/10 04:17:51;;;;;;;0.30;0.30;;;15.30;71.00;;;;;;6277780;22;20010;-76
2022/07/10 04:20:18;;;;;;;0.55;0.28;;;15.40;71.10;;;;;;6306145;22;20015;-76
2022/07/10 04:22:44;;;;;;;0.17;0.17;;;15.40;71.10;;;;;;6306103;22;20336;-75
2022/07/10 04:25:10;;;;;;;0.57;0.30;;;15.40;71.10;;;;;;6278650;22;20033;-76
2022/07/10 04:27:36;;;;;;;0.32;0.30;;;15.40;71.00;;;;;;6278589;22;20015;-75
2022/07/10 04:30:03;;;;;;;0.20;0.20;;;15.60;71.20;;;;;;6276854;22;20035;-76
2022/07/10 04:32:29;;;;;;;0.40;0.30;;;15.50;71.10;;;;;;6305843;22;20030;-75
2022/07/10 04:34:55;;;;;;;0.30;0.30;;;15.50;71.10;;;;;;6306293;22;20454;-76
2022/07/10 04:37:21;;;;;;;0.30;0.30;;;15.50;71.10;;;;;;6277008;22;20008;-76
2022/07/10 04:39:46;;;;;;;2.47;0.38;;;15.50;71.10;;;;;;6278676;22;20014;-76
2022/07/10 04:42:12;;;;;;;0.38;0.28;;;15.50;71.10;;;;;;6305729;22;20035;-76
2022/07/10 04:44:38;;;;;;;1.23;0.50;;;15.50;71.10;;;;;;6306510;22;20386;-76
2022/07/10 04:47:05;;;;;;;0.55;0.22;;;15.50;71.10;;;;;;6306393;22;20011;-76
2022/07/10 04:49:32;;;;;;;0.20;0.20;;;15.60;71.20;;;;;;6278263;22;20454;-76
2022/07/10 04:51:58;;;;;;;0.77;0.20;;;15.60;71.20;;;;;;6306782;22;20453;-76
2022/07/10 04:54:24;;;;;;;0.65;0.40;;;15.50;71.20;;;;;;6252959;22;20408;-76
2022/07/10 04:56:50;;;;;;;0.30;0.30;;;15.50;71.20;;;;;;6306069;22;20007;-76
2022/07/10 04:59:15;;;;;;;0.20;0.20;;;15.60;71.30;;;;;;6308536;22;20018;-76
2022/07/10 05:01:41;;;;;;;0.30;0.30;;;15.60;71.30;;;;;;6279933;22;20010;-76
2022/07/10 05:04:08;;;;;;;0.20;0.20;;;15.60;71.30;;;;;;6279674;22;20007;-76
2022/07/10 05:06:34;;;;;;;1.75;0.30;;;15.60;71.30;;;;;;6306968;22;20007;-76
2022/07/10 05:09:00;;;;;;;0.20;0.20;;;15.60;71.20;;;;;;6279708;22;20453;-76
2022/07/10 05:11:26;;;;;;;2.28;0.30;;;15.60;71.20;;;;;;6307967;22;20086;-76
2022/07/10 05:13:52;;;;;;;0.10;0.10;;;15.70;71.10;;;;;;6307795;22;20431;-76
2022/07/10 05:16:18;;;;;;;0.43;0.30;;;15.70;71.20;;;;;;6311330;22;20506;-76
2022/07/10 05:18:44;;;;;;;0.65;0.30;;;15.70;71.10;;;;;;6280123;22;20011;-76
2022/07/10 05:21:10;;;;;;;0.32;0.20;;;15.70;71.00;;;;;;6280683;22;20393;-76
2022/07/10 05:23:38;;;;;;;0.40;0.30;;;15.80;71.00;;;;;;6304595;22;20011;-76
2022/07/10 05:26:04;;;;;;;0.20;0.17;;;15.90;71.00;;;;;;6280475;22;20380;-76
2022/07/10 05:28:29;;;;;;;0.88;0.40;;;15.90;71.00;;;;;;6280287;22;20011;-76
2022/07/10 05:30:55;;;;;;;0.63;0.30;;;15.90;71.00;;;;;;6309639;22;20082;-76
2022/07/10 05:33:21;;;;;;;0.20;0.20;;;15.90;71.00;;;;;;6280362;22;19999;-76
2022/07/10 05:35:46;;;;;;;0.30;0.30;;;15.90;71.00;;;;;;6308487;22;20015;-76
2022/07/10 05:38:12;;;;;;;0.70;0.30;;;15.80;70.90;;;;;;6306942;22;20045;-76
2022/07/10 05:40:38;;;;;;;0.65;0.30;;;16.00;71.00;;;;;;6307247;22;20056;-76
2022/07/10 05:43:03;;;;;;;0.30;0.22;;;16.00;70.90;;;;;;6279648;22;20072;-76
2022/07/10 05:45:29;;;;;;;0.40;0.30;;;16.00;70.90;;;;;;6278852;22;21342;-76
2022/07/10 05:47:55;;;;;;;0.88;0.30;;;16.10;70.80;;;;;;6280044;22;20007;-76
2022/07/10 05:50:21;;;;;;;0.30;0.30;;;16.10;70.80;;;;;;6307458;22;20332;-76
2022/07/10 05:52:47;;;;;;;0.28;0.28;;;16.10;70.80;;;;;;6307147;22;20041;-76
2022/07/10 05:55:14;;;;;;;1.95;0.40;;;16.10;70.90;;;;;;6307914;22;20010;-76
2022/07/10 05:57:40;;;;;;;0.30;0.30;;;16.00;70.80;;;;;;6280113;22;20061;-76
2022/07/10 06:00:07;;;;;;;0.60;0.30;;;16.10;70.90;;;;;;6281717;22;20007;-76
2022/07/10 06:02:33;;;;;;;0.35;0.20;;;16.10;71.00;;;;;;6279795;22;20015;-76
2022/07/10 06:04:59;;;;;;;0.68;0.28;;;16.10;71.10;;;;;;6308016;22;20436;-76
2022/07/10 06:07:26;;;;;;;0.32;0.32;;;16.20;71.20;;;;;;6308717;22;20439;-76
2022/07/10 06:09:53;;;;;;;0.93;0.45;;;16.20;71.10;;;;;;6284396;22;20011;-76
2022/07/10 06:12:19;;;;;;;0.73;0.47;;;16.20;71.20;;;;;;6317049;22;20013;-76
2022/07/10 06:14:44;;;;;;;0.47;0.40;;;16.10;71.20;;;;;;6312755;22;20377;-76
2022/07/10 06:17:10;;;;;;;0.82;0.40;;;16.10;71.20;;;;;;6281419;22;20015;-76
2022/07/10 06:19:36;;;;;;;0.80;0.43;;;16.10;71.30;;;;;;6308693;22;20007;-76
2022/07/10 06:24:39;;;;;;;1.25;0.47;;;16.20;71.40;;;;;;6309021;22;20047;-76
2022/07/10 06:27:05;;;;;;;1.55;0.32;;;16.20;71.40;;;;;;6283269;22;20018;-76
2022/07/10 06:29:31;;;;;;;0.32;0.30;;;16.20;71.50;;;;;;6306636;22;20450;-76
2022/07/10 06:31:57;;;;;;;0.40;0.35;;;16.10;71.60;;;;;;6307406;22;20017;-76
2022/07/10 06:34:22;;;;;;;0.30;0.25;;;16.10;71.70;;;;;;6279241;22;20432;-76
2022/07/10 06:36:48;;;;;;;0.57;0.32;;;16.10;71.80;;;;;;6306558;22;20010;-77
2022/07/10 06:39:13;;;;;;;0.82;0.30;;;16.10;72.00;;;;;;6274921;22;20011;-76
2022/07/10 06:41:39;;;;;;;0.40;0.28;;;16.10;72.10;;;;;;6307391;22;20056;-76
2022/07/10 06:44:05;;;;;;;0.65;0.30;;;16.10;72.20;;;;;;6280186;22;20612;-77
2022/07/10 06:46:32;;;;;;;1.42;0.38;;;16.20;72.30;;;;;;6279199;22;20450;-77
2022/07/10 06:48:58;;;;;;;0.80;0.38;;;16.10;72.30;;;;;;6307690;22;20014;-77
2022/07/10 06:51:24;;;;;;;0.28;0.28;;;16.10;72.30;;;;;;6306736;22;20010;-77
2022/07/10 06:53:50;;;;;;;0.77;0.30;;;16.10;72.40;;;;;;6307343;22;20003;-76
2022/07/10 06:56:17;;;;;;;0.45;0.30;;;16.10;72.50;;;;;;6281812;22;20007;-77
2022/07/10 06:58:43;;;;;;;0.30;0.30;;;16.10;72.70;;;;;;6252140;22;20004;-76
2022/07/10 07:01:08;;;;;;;0.93;0.40;;;16.00;72.90;;;;;;6307291;22;20082;-77
2022/07/10 07:03:34;;;;;;;0.30;0.30;;;16.00;72.90;;;;;;6306673;22;20460;-76
2022/07/10 07:06:00;;;;;;;0.68;0.47;;;16.00;73.20;;;;;;6309353;22;20064;-76
2022/07/10 07:08:26;;;;;;;0.88;0.40;;;15.90;73.20;;;;;;6254069;22;20438;-77
2022/07/10 07:10:51;;;;;;;0.40;0.32;;;16.00;73.50;;;;;;6307070;22;20010;-76
2022/07/10 07:13:17;;;;;;;1.17;0.30;;;15.90;73.40;;;;;;6306626;22;20335;-76
2022/07/10 07:15:49;;;;;;;0.60;0.40;;;15.90;73.60;;;;;;6306649;22;20057;-76
2022/07/10 07:18:16;;;;;;;0.30;0.30;;;15.90;73.80;;;;;;6306431;22;20281;-75
2022/07/10 07:23:23;;;;;;;0.30;0.30;;;15.90;74.10;;;;;;6306543;22;20018;-77
2022/07/10 07:25:49;;;;;;;0.73;0.30;;;15.90;74.20;;;;;;6306738;22;20007;-77
2022/07/10 07:28:15;;;;;;;0.38;0.20;;;16.00;74.30;;;;;;6307085;22;20007;-77
2022/07/10 07:30:42;;;;;;;0.30;0.30;;;15.90;74.40;;;;;;6306500;22;20057;-77
2022/07/10 07:33:08;;;;;;;1.05;0.40;;;16.00;74.40;;;;;;6308990;22;20007;-76
2022/07/10 07:35:34;;;;;;;0.75;0.30;;;15.90;74.40;;;;;;6309166;22;20003;-77
2022/07/10 07:38:02;;;;;;;0.30;0.20;;;15.90;74.30;;;;;;6281889;22;20043;-77
2022/07/10 07:40:28;;;;;;;1.05;0.43;;;16.00;74.60;;;;;;6254907;22;20038;-77
2022/07/10 07:42:55;;;;;;;0.30;0.30;;;16.00;74.60;;;;;;6309336;22;20011;-77
2022/07/10 07:45:22;;;;;;;0.52;0.30;;;15.90;74.80;;;;;;6307850;22;20018;-77
2022/07/10 07:47:54;;;;;;;0.65;0.40;;;16.00;75.00;;;;;;6297671;22;20511;-77
2022/07/10 07:50:25;;;;;;;0.20;0.20;;;16.00;74.90;;;;;;6307216;22;20014;-77
2022/07/10 07:52:51;;;;;;;1.13;0.40;;;16.10;74.90;;;;;;6297958;22;20331;-76
2022/07/10 07:55:19;;;;;;;0.55;0.32;;;16.20;74.80;;;;;;6280854;22;20156;-77
2022/07/10 07:57:45;;;;;;;0.88;0.30;;;16.30;74.80;;;;;;6307626;22;20015;-77
2022/07/10 08:00:12;;;;;;;0.40;0.40;;;16.30;74.70;;;;;;6281587;22;20033;-77
2022/07/10 08:02:39;;;;;;;0.20;0.20;;;16.40;74.60;;;;;;6263141;22;20200;-77
2022/07/10 08:05:05;;;;;;;0.80;0.40;;;16.60;74.50;;;;;;6309849;22;20003;-77
2022/07/10 08:07:43;;;;;;;0.45;0.30;;;16.70;74.30;;;;;;6260933;22;20045;-77
2022/07/10 08:10:11;;;;;;;0.70;0.25;;;16.60;74.20;;;;;;6283823;22;20007;-76
2022/07/10 08:12:38;;;;;;;0.77;0.40;;;16.60;74.30;;;;;;6291360;22;20431;-77
2022/07/10 08:15:06;;;;;;;0.40;0.30;;;16.60;74.40;;;;;;6288877;22;20003;-77
2022/07/10 08:17:32;;;;;;;1.05;0.35;;;16.60;74.50;;;;;;6312776;22;20031;-77
2022/07/10 08:19:58;;;;;;;0.45;0.45;;;16.70;74.60;;;;;;6311634;22;20018;-77
2022/07/10 08:22:23;;;;;;;0.73;0.40;;;16.70;74.60;;;;;;6285047;22;20015;-77
2022/07/10 08:24:49;;;;;;;0.30;0.30;;;16.80;74.50;;;;;;6289189;22;20011;-77
2022/07/10 08:27:15;;;;;;;0.73;0.60;;;16.80;74.40;;;;;;6291700;22;20007;-76
2022/07/10 08:29:41;;;;;;;2.15;0.47;;;17.00;74.10;;;;;;6320779;22;20067;-76
2022/07/10 08:32:09;;;;;;;0.32;0.32;;;17.10;74.00;;;;;;6320730;22;20003;-77
2022/07/10 08:34:35;;;;;;;0.60;0.40;;;17.30;73.80;;;;;;6292114;22;20062;-77
2022/07/10 08:37:01;;;;;;;1.05;0.30;;;17.30;73.50;;;;;;6320291;22;20003;-76
2022/07/10 08:39:27;;;;;;;0.30;0.30;;;17.50;73.40;;;;;;6319882;22;20007;-77
2022/07/10 08:41:53;;;;;;;0.77;0.28;;;17.60;73.30;;;;;;6317569;22;20036;-77
2022/07/10 08:44:19;;;;;;;0.95;0.50;;;17.60;73.00;;;;;;6316677;22;20014;-76
2022/07/10 08:46:45;;;;;;;1.02;0.40;;;17.70;72.80;;;;;;6315239;22;20042;-76
2022/07/10 08:49:13;;;;;;;1.50;0.50;;;17.70;72.80;;;;;;6288407;22;20011;-76
2022/07/10 08:52:02;;;;;;;0.35;0.32;;;17.80;72.70;;;;;;6289854;22;20021;-76
2022/07/10 08:54:29;;;;;;;0.93;0.47;;;17.90;72.70;;;;;;6319323;22;20003;-76
2022/07/10 08:56:57;;;;;;;1.10;0.50;;;17.80;72.70;;;;;;6315995;22;20003;-77
2022/07/10 08:59:23;;;;;;;1.13;0.60;;;17.80;72.80;;;;;;6315044;22;20043;-76
2022/07/10 09:01:49;;;;;;;1.15;0.50;;;17.70;72.90;;;;;;6289468;22;20062;-76
2022/07/10 09:04:18;;;;;;;0.98;0.50;;;17.70;73.00;;;;;;6317940;22;20007;-76
2022/07/10 09:06:44;;;;;;;0.57;0.40;;;17.70;73.20;;;;;;6287546;22;20004;-76
2022/07/10 09:09:11;;;;;;;0.38;0.38;;;17.70;73.20;;;;;;6290618;22;20188;-77
2022/07/10 09:11:40;;;;;;;1.77;0.50;;;17.90;73.10;;;;;;6290194;22;20004;-77
2022/07/10 09:14:08;;;;;;;1.05;0.38;;;18.10;72.60;;;;;;6291382;22;20019;-76
2022/07/10 09:16:35;;;;;;;0.50;0.47;;;18.20;72.50;;;;;;6320559;22;20058;-76
2022/07/10 09:19:22;;;;;;;1.38;0.60;;;18.40;72.20;;;;;;6295163;22;20007;-77
2022/07/10 09:21:51;;;;;;;0.68;0.40;;;18.70;71.70;;;;;;6319956;22;20014;-76
2022/07/10 09:24:19;;;;;;;0.82;0.43;;;18.90;71.00;;;;;;6291940;22;20007;-76
2022/07/10 09:27:00;;;;;;;0.63;0.45;;;19.10;70.50;;;;;;6293215;22;20026;-76
2022/07/10 09:29:26;;;;;;;0.55;0.38;;;19.20;70.30;;;;;;6290805;22;20011;-76
2022/07/10 09:31:53;;;;;;;1.65;0.50;;;19.30;70.20;;;;;;6292043;22;20026;-76
2022/07/10 09:34:43;;;;;;;0.55;0.40;;;19.30;70.20;;;;;;6318669;22;20059;-76
2022/07/10 09:37:27;;;;;;;0.50;0.50;;;19.40;70.10;;;;;;6315887;22;20010;-76
2022/07/10 09:39:56;;;;;;;0.50;0.50;;;19.40;70.10;;;;;;6291285;22;20012;-76
2022/07/10 09:42:27;;;;;;;1.27;0.60;;;19.30;70.00;;;;;;6315697;22;20014;-77
2022/07/10 09:45:12;;;;;;;0.60;0.50;;;19.20;70.20;;;;;;6318882;22;20062;-77
2022/07/10 09:47:42;;;;;;;1.40;0.52;;;19.20;70.50;;;;;;6318113;22;20018;-76
2022/07/10 09:50:29;;;;;;;0.50;0.50;;;19.10;70.50;;;;;;6316434;22;20015;-76
2022/07/10 09:52:57;;;;;;;0.30;0.30;;;19.20;70.60;;;;;;6265182;22;20015;-76
2022/07/10 09:55:26;;;;;;;0.30;0.30;;;19.20;70.60;;;;;;6322552;22;20015;-76
2022/07/10 09:57:57;;;;;;;1.05;0.40;;;19.30;70.30;;;;;;6317639;22;20057;-76
2022/07/10 10:00:25;;;;;;;0.43;0.30;;;19.30;70.30;;;;;;6297814;22;20007;-77
2022/07/10 10:02:56;;;;;;;1.05;0.50;;;19.30;70.50;;;;;;6329274;22;20368;-78
2022/07/10 10:05:32;;;;;;;0.88;0.50;;;19.10;70.60;;;;;;6299945;22;20017;-78
2022/07/10 10:08:02;;;;;;;0.40;0.40;;;19.10;70.80;;;;;;6318989;22;20011;-78
2022/07/10 10:10:29;;;;;;;0.30;0.30;;;19.10;70.80;;;;;;6316875;22;20007;-77
2022/07/10 10:12:59;;;;;;;1.70;0.30;;;19.10;70.90;;;;;;6327164;22;20248;-77
2022/07/10 10:15:26;;;;;;;0.73;0.57;;;19.20;70.80;;;;;;6291631;22;20335;-78
2022/07/10 10:17:52;;;;;;;0.45;0.40;;;19.40;70.40;;;;;;6321064;22;20011;-77
2022/07/10 10:23:04;;;;;;;0.50;0.43;;;19.70;69.60;;;;;;6321059;22;20065;-77
2022/07/10 10:25:32;;;;;;;0.55;0.45;;;19.90;69.20;;;;;;6321180;22;20339;-79
2022/07/10 10:28:01;;;;;;;1.13;0.85;;;19.90;68.80;;;;;;6297482;22;20019;-77
2022/07/10 10:30:28;;;;;;;0.90;0.40;;;20.00;68.70;;;;;;6319403;22;20436;-78
2022/07/10 10:32:54;;;;;;;0.40;0.40;;;20.20;68.50;;;;;;6323427;22;20022;-77
2022/07/10 10:35:46;;;;;;;0.90;0.50;;;20.30;68.30;;;;;;6322752;22;20014;-78
2022/07/10 10:38:13;;;;;;;0.80;0.60;;;20.30;68.10;;;;;;6321929;22;20141;-77
2022/07/10 10:40:39;;;;;;;0.98;0.50;;;20.30;68.30;;;;;;6320615;22;20041;-77
2022/07/10 10:43:23;;;;;;;0.98;0.70;;;20.30;68.40;;;;;;6326067;22;20027;-77
2022/07/10 10:45:51;;;;;;;1.00;0.65;;;20.20;68.50;;;;;;6326129;22;20029;-77
2022/07/10 10:48:20;;;;;;;0.40;0.40;;;20.20;68.50;;;;;;6269858;22;20003;-78
2022/07/10 10:50:48;;;;;;;0.77;0.57;;;20.30;68.40;;;;;;6297183;22;20012;-78
2022/07/10 10:53:20;;;;;;;1.40;0.68;;;20.30;68.10;;;;;;6323218;22;20079;-77
2022/07/10 10:56:21;;;;;;;0.47;0.47;;;20.20;68.10;;;;;;6326428;22;20011;-77
2022/07/10 10:58:46;;;;;;;0.30;0.30;;;20.20;68.30;;;;;;6322460;22;20019;-77
2022/07/10 11:01:25;;;;;;;0.30;0.30;;;20.10;68.40;;;;;;6322844;22;20329;-77
2022/07/10 11:04:20;;;;;;;0.82;0.50;;;20.20;68.50;;;;;;6320323;22;20012;-78
2022/07/10 11:06:49;;;;;;;0.77;0.60;;;20.30;68.30;;;;;;6321046;22;20045;-77
2022/07/10 11:09:31;;;;;;;0.32;0.32;;;20.30;68.20;;;;;;6296527;22;20007;-77
2022/07/10 11:12:00;;;;;;;0.77;0.47;;;20.30;68.20;;;;;;6328205;22;20003;-77
2022/07/10 11:14:28;;;;;;;0.68;0.47;;;20.30;68.20;;;;;;6297037;22;20004;-77
2022/07/10 11:16:55;;;;;;;0.43;0.43;;;20.50;68.20;;;;;;6298667;22;20007;-77
2022/07/10 11:19:25;;;;;;;0.77;0.47;;;20.60;67.90;;;;;;6296340;22;20004;-76
2022/07/10 11:22:03;;;;;;;2.53;0.60;;;20.90;67.60;;;;;;6311538;22;20014;-76
2022/07/10 11:25:01;;;;;;;1.27;0.60;;;21.10;67.00;;;;;;6308014;22;20011;-76
2022/07/10 11:27:59;;;;;;;0.73;0.52;;;21.30;66.70;;;;;;6292941;22;20011;-76
2022/07/10 11:30:25;;;;;;;0.40;0.40;;;21.40;66.50;;;;;;6307537;22;20007;-76
2022/07/10 11:32:52;;;;;;;0.47;0.47;;;21.40;66.60;;;;;;6286155;22;20031;-76
2022/07/10 11:35:18;;;;;;;0.80;0.73;;;21.30;66.80;;;;;;6311492;22;20031;-76
2022/07/10 11:37:52;;;;;;;0.60;0.50;;;21.10;67.10;;;;;;6307815;22;20074;-76
2022/07/10 11:40:19;;;;;;;0.63;0.47;;;21.00;67.40;;;;;;6309004;22;19999;-76
2022/07/10 11:42:55;;;;;;;0.40;0.40;;;21.00;67.50;;;;;;6306949;22;20034;-76
2022/07/10 11:45:30;;;;;;;1.13;0.50;;;21.00;67.50;;;;;;6314280;22;20007;-76
2022/07/10 11:47:56;;;;;;;0.45;0.45;;;21.00;67.40;;;;;;6310210;22;20011;-76
2022/07/10 11:50:22;;;;;;;0.50;0.50;;;21.00;67.40;;;;;;6310407;22;20095;-76
2022/07/10 11:52:50;;;;;;;0.90;0.40;;;20.90;67.60;;;;;;6316468;22;20029;-76
2022/07/10 11:55:19;;;;;;;0.50;0.50;;;20.80;67.70;;;;;;6282978;22;20090;-76
2022/07/10 11:57:48;;;;;;;0.57;0.30;;;20.80;67.80;;;;;;6259889;22;20003;-76
2022/07/10 12:00:25;;;;;;;0.30;0.30;;;20.90;67.80;;;;;;6309102;22;20029;-75
2022/07/10 12:02:52;;;;;;;0.47;0.47;;;21.00;67.60;;;;;;6314441;22;20013;-76
2022/07/10 12:05:36;;;;;;;0.32;0.32;;;21.10;67.30;;;;;;6257185;22;20509;-76
2022/07/10 12:08:04;;;;;;;0.30;0.30;;;21.20;67.10;;;;;;6311679;22;20015;-75
2022/07/10 12:10:32;;;;;;;0.52;0.40;;;21.20;66.90;;;;;;6307813;22;20007;-75
2022/07/10 12:13:07;;;;;;;0.40;0.35;;;21.20;67.00;;;;;;6308697;22;20011;-76
2022/07/10 12:15:36;;;;;;;1.77;0.70;;;21.10;67.00;;;;;;6313794;22;20029;-75
2022/07/10 12:18:02;;;;;;;0.40;0.40;;;21.10;67.20;;;;;;6314700;22;20007;-75
2022/07/10 12:20:28;;;;;;;0.50;0.50;;;21.00;67.40;;;;;;6313121;22;20015;-75
2022/07/10 12:22:55;;;;;;;0.57;0.43;;;21.00;67.50;;;;;;6286152;22;21547;-76
2022/07/10 12:25:21;;;;;;;0.57;0.50;;;21.00;67.40;;;;;;6311242;22;20007;-75
2022/07/10 12:27:47;;;;;;;2.38;0.70;;;21.00;67.30;;;;;;6311689;22;20007;-76
2022/07/10 12:30:12;;;;;;;0.50;0.50;;;20.90;67.20;;;;;;6280624;22;20011;-76
2022/07/10 12:32:38;;;;;;;0.73;0.57;;;21.00;67.90;;;;;;6308593;22;20010;-75
2022/07/10 12:35:07;;;;;;;0.38;0.38;;;21.10;67.20;;;;;;6311394;22;20424;-76
2022/07/10 12:37:33;;;;;;;0.40;0.40;;;21.10;66.90;;;;;;6310051;22;20427;-75
2022/07/10 12:39:59;;;;;;;0.50;0.50;;;21.20;66.70;;;;;;6306984;22;20046;-75
2022/07/10 12:42:28;;;;;;;0.73;0.45;;;21.30;66.60;;;;;;6306502;22;20072;-75
2022/07/10 12:44:53;;;;;;;0.95;0.60;;;21.30;66.50;;;;;;6307653;22;20035;-75
2022/07/10 12:47:21;;;;;;;0.50;0.50;;;21.30;66.20;;;;;;6309058;22;20034;-75
2022/07/10 12:49:54;;;;;;;0.90;0.57;;;21.40;66.30;;;;;;6305708;22;20054;-75
2022/07/10 12:52:25;;;;;;;0.30;0.30;;;21.40;66.00;;;;;;6306192;22;20081;-75
2022/07/10 12:55:13;;;;;;;0.47;0.40;;;21.50;65.90;;;;;;6308419;22;20003;-75
2022/07/10 12:57:57;;;;;;;0.63;0.40;;;21.50;65.80;;;;;;6305527;22;20007;-75
2022/07/10 13:00:25;;;;;;;0.30;0.30;;;21.60;65.70;;;;;;6305380;22;20007;-75
2022/07/10 13:03:04;;;;;;;0.63;0.45;;;21.70;65.70;;;;;;6307136;22;20015;-75